Time;durP1;ratioP1;P1;durP2;ratioP2;P2;SDS_P1;SDS_P2;PMS_P1;PMS_P2;Temp;Humidity;BMP_temperature;BMP_pressure;BME280_temperature;BME280_humidity;BME280_pressure;Samples;Min_cycle;Max_cycle;Signal;HPM_P1;HPM_P2
2022/01/17 00:01:41;;;;;;;32.22;17.02;;;;;;;1.55;83.35;97515.94;5027027;28;20616;-73
2022/01/17 00:04:10;;;;;;;31.98;15.60;;;;;;;1.59;83.34;97509.06;5026782;28;20495;-73
2022/01/17 00:06:37;;;;;;;34.58;16.98;;;;;;;1.60;83.14;97510.69;5027796;28;20049;-73
2022/01/17 00:09:03;;;;;;;29.58;15.80;;;;;;;1.59;82.90;97506.38;5026980;28;20045;-73
2022/01/17 00:11:31;;;;;;;31.33;15.82;;;;;;;1.62;82.72;97503.25;5027483;28;20053;-73
2022/01/17 00:13:58;;;;;;;33.47;16.70;;;;;;;1.64;82.53;97506.50;5026369;28;20045;-73
2022/01/17 00:16:33;;;;;;;33.88;16.67;;;;;;;1.66;82.48;97501.72;5027345;28;20099;-73
2022/01/17 00:19:29;;;;;;;32.03;16.73;;;;;;;1.61;82.25;97493.53;5027436;28;20053;-73
2022/01/17 00:21:54;;;;;;;34.97;17.85;;;;;;;1.54;82.27;97490.16;5026881;28;20449;-73
2022/01/17 00:24:21;;;;;;;34.85;17.63;;;;;;;1.53;82.36;97488.53;5026164;28;20069;-73
2022/01/17 00:26:52;;;;;;;32.45;16.48;;;;;;;1.54;82.38;97471.34;5027251;28;20052;-73
2022/01/17 00:29:18;;;;;;;33.50;18.02;;;;;;;1.55;82.38;97479.16;5028033;28;20054;-73
2022/01/17 00:31:45;;;;;;;36.10;18.17;;;;;;;1.58;82.06;97488.66;5031385;28;20053;-73
2022/01/17 00:34:11;;;;;;;33.08;16.67;;;;;;;1.60;81.87;97491.09;5030906;28;20064;-73
2022/01/17 00:36:38;;;;;;;35.00;17.30;;;;;;;1.59;82.24;97490.28;5031230;28;20049;-75
2022/01/17 00:39:04;;;;;;;33.58;17.92;;;;;;;1.58;81.91;97491.31;5029548;28;20053;-75
2022/01/17 00:41:31;;;;;;;30.13;16.83;;;;;;;1.53;81.96;97493.91;5030383;28;20049;-73
2022/01/17 00:43:59;;;;;;;31.77;17.38;;;;;;;1.49;82.09;97495.41;5030303;28;20408;-73
2022/01/17 00:46:25;;;;;;;30.73;15.77;;;;;;;1.48;82.32;97497.25;5030681;28;20041;-73
2022/01/17 00:48:52;;;;;;;36.50;18.67;;;;;;;1.50;82.48;97494.34;5031077;28;20707;-73
2022/01/17 00:51:18;;;;;;;38.40;18.05;;;;;;;1.46;82.63;97485.97;5030411;28;20057;-73
2022/01/17 00:53:45;;;;;;;32.65;17.83;;;;;;;1.44;82.59;97485.34;5030777;28;20053;-73
2022/01/17 00:56:11;;;;;;;35.83;16.98;;;;;;;1.46;82.62;97487.78;5030502;28;20060;-73
2022/01/17 00:58:38;;;;;;;32.50;17.48;;;;;;;1.49;82.71;97485.47;5030858;28;20059;-74
2022/01/17 01:01:06;;;;;;;34.95;17.92;;;;;;;1.51;82.92;97493.28;5030158;28;20064;-73
2022/01/17 01:03:32;;;;;;;35.25;16.52;;;;;;;1.48;83.23;97499.13;5031080;28;20046;-74
2022/01/17 01:05:59;;;;;;;35.92;18.08;;;;;;;1.49;83.36;97504.25;5030725;28;20064;-73
2022/01/17 01:08:25;;;;;;;33.63;18.08;;;;;;;1.47;83.23;97502.88;5030152;28;20053;-73
2022/01/17 01:10:52;;;;;;;35.83;17.20;;;;;;;1.46;83.51;97506.59;5030255;28;20052;-73
2022/01/17 01:13:22;;;;;;;34.47;18.58;;;;;;;1.46;83.36;97493.16;5029338;28;20045;-74
2022/01/17 01:16:09;;;;;;;35.40;17.88;;;;;;;1.49;83.44;97498.09;5030429;28;20433;-73
2022/01/17 01:18:55;;;;;;;32.75;17.25;;;;;;;1.44;83.01;97506.00;5030049;28;20057;-73
2022/01/17 01:21:44;;;;;;;32.95;17.15;;;;;;;1.45;83.10;97499.59;5029924;28;20052;-73
2022/01/17 01:29:46;;;;;;;32.45;16.92;;;;;;;1.43;83.04;97488.28;5029753;28;20508;-73
2022/01/17 01:32:16;;;;;;;;;;;;;;;1.45;82.89;97481.63;5029813;28;20045;-73
2022/01/17 01:34:48;;;;;;;32.17;15.93;;;;;;;1.42;82.92;97483.97;5030125;28;20007;-74
2022/01/17 01:37:15;;;;;;;31.02;16.02;;;;;;;1.42;82.86;97494.69;5029201;28;20049;-73
2022/01/17 01:39:42;;;;;;;30.45;15.95;;;;;;;1.45;82.87;97486.97;5029314;28;20056;-73
2022/01/17 01:42:13;;;;;;;30.95;16.77;;;;;;;1.52;82.45;97490.41;5029065;28;20052;-73
2022/01/17 01:44:39;;;;;;;28.80;15.52;;;;;;;1.58;81.94;97491.31;5029944;28;20048;-73
2022/01/17 01:47:06;;;;;;;32.38;16.48;;;;;;;1.58;81.79;97488.66;5029163;28;20050;-73
2022/01/17 01:49:32;;;;;;;30.00;15.25;;;;;;;1.63;81.48;97479.91;5029873;28;20045;-73
2022/01/17 01:52:00;;;;;;;30.35;15.43;;;;;;;1.64;81.45;97476.97;5029303;28;20519;-73
2022/01/17 01:54:27;;;;;;;31.45;16.25;;;;;;;1.68;81.15;97483.50;5029063;28;20041;-73
2022/01/17 01:56:53;;;;;;;30.65;16.10;;;;;;;1.68;80.88;97480.00;5029605;28;20100;-73
2022/01/17 01:59:22;;;;;;;30.40;16.00;;;;;;;1.69;80.70;97471.72;5029352;28;20050;-75
2022/01/17 02:01:49;;;;;;;31.67;15.98;;;;;;;1.69;80.48;97490.50;5029387;28;20459;-75
2022/01/17 02:04:15;;;;;;;29.23;14.73;;;;;;;1.69;80.42;97490.50;5028969;28;20049;-75
2022/01/17 02:06:42;;;;;;;33.53;16.38;;;;;;;1.69;80.10;97479.78;5029423;28;20057;-74
2022/01/17 02:09:10;;;;;;;28.45;15.02;;;;;;;1.67;79.90;97483.72;5028515;28;20049;-74
2022/01/17 02:11:38;;;;;;;29.23;15.27;;;;;;;1.66;80.12;97474.84;5029094;28;20052;-74
2022/01/17 02:14:05;;;;;;;30.85;15.80;;;;;;;1.61;80.11;97472.06;5028588;28;20060;-75
2022/01/17 02:16:32;;;;;;;30.00;15.35;;;;;;;1.58;79.98;97459.13;5028926;28;20428;-75
2022/01/17 02:18:58;;;;;;;28.52;15.23;;;;;;;1.59;79.72;97468.78;5028926;28;20049;-74
2022/01/17 02:21:34;;;;;;;29.13;14.63;;;;;;;1.60;79.55;97470.44;5028418;28;20052;-75
2022/01/17 02:24:01;;;;;;;26.33;13.55;;;;;;;1.62;79.51;97471.03;5029061;28;20137;-75
2022/01/17 02:26:29;;;;;;;30.63;14.85;;;;;;;1.65;79.07;97489.34;5028868;28;20056;-74
2022/01/17 02:28:57;;;;;;;27.17;14.35;;;;;;;1.67;78.85;97476.50;5028687;28;20412;-75
2022/01/17 02:31:25;;;;;;;27.17;13.30;;;;;;;1.69;79.01;97462.84;5028460;28;20132;-72
2022/01/17 02:33:53;;;;;;;27.45;14.27;;;;;;;1.70;78.78;97472.53;5028448;28;20042;-75
2022/01/17 02:36:19;;;;;;;27.67;12.40;;;;;;;1.71;78.95;97472.28;5028450;28;20136;-74
2022/01/17 02:38:47;;;;;;;26.13;13.50;;;;;;;1.72;78.61;97473.94;5028655;28;20068;-74
2022/01/17 02:41:14;;;;;;;26.98;14.02;;;;;;;1.74;78.55;97473.69;5028407;28;20600;-74
2022/01/17 02:43:41;;;;;;;22.63;12.43;;;;;;;1.75;78.10;97457.34;5028563;28;20492;-76
2022/01/17 02:46:25;;;;;;;21.85;11.65;;;;;;;1.76;78.11;97469.72;5028420;28;20052;-74
2022/01/17 02:48:55;;;;;;;23.90;11.80;;;;;;;1.81;78.05;97458.28;5028615;28;20548;-74
2022/01/17 02:51:21;;;;;;;23.35;12.45;;;;;;;1.81;77.97;97453.72;5027245;28;20054;-74
2022/01/17 02:53:50;;;;;;;24.73;12.13;;;;;;;1.83;77.56;97448.94;5028396;28;20053;-74
2022/01/17 02:56:16;;;;;;;21.90;11.40;;;;;;;1.85;77.13;97437.16;5028080;28;20053;-74
2022/01/17 02:58:43;;;;;;;20.80;11.20;;;;;;;1.81;77.43;97434.91;5028450;28;20049;-74
2022/01/17 03:01:12;;;;;;;21.55;11.02;;;;;;;1.84;77.12;97444.38;5027760;28;20049;-74
2022/01/17 03:03:40;;;;;;;21.95;11.10;;;;;;;1.86;77.20;97441.47;5028571;28;20080;-74
2022/01/17 03:06:07;;;;;;;21.52;10.57;;;;;;;1.87;76.70;97433.16;5027717;28;20053;-74
2022/01/17 03:08:35;;;;;;;17.05;10.32;;;;;;;1.88;76.43;97433.97;5028198;28;20417;-75
2022/01/17 03:11:05;;;;;;;19.27;10.65;;;;;;;1.92;76.43;97435.13;5027525;28;20049;-75
2022/01/17 03:13:34;;;;;;;20.95;9.93;;;;;;;1.98;76.14;97434.19;5027528;28;20057;-74
2022/01/17 03:16:04;;;;;;;20.05;10.40;;;;;;;1.98;75.65;97434.19;5027923;28;20141;-75
2022/01/17 03:18:36;;;;;;;17.73;9.57;;;;;;;1.97;75.71;97441.44;5027932;28;20060;-75
2022/01/17 03:21:04;;;;;;;20.02;10.57;;;;;;;1.98;75.62;97445.75;5027489;28;20053;-75
2022/01/17 03:23:30;;;;;;;18.88;9.63;;;;;;;2.01;75.93;97456.03;5027911;28;20056;-75
2022/01/17 03:25:57;;;;;;;20.60;9.70;;;;;;;2.01;75.60;97460.59;5027951;28;20053;-74
2022/01/17 03:28:26;;;;;;;18.38;10.05;;;;;;;2.01;75.72;97460.59;5027293;28;20041;-75
2022/01/17 03:30:53;;;;;;;18.73;9.50;;;;;;;2.03;75.40;97464.66;5027703;28;20563;-74
2022/01/17 03:33:19;;;;;;;17.40;9.15;;;;;;;2.04;75.05;97460.13;5027219;28;20045;-74
2022/01/17 03:35:46;;;;;;;16.42;8.98;;;;;;;2.04;75.30;97455.56;5028181;28;20051;-75
2022/01/17 03:38:15;;;;;;;16.65;9.63;;;;;;;2.07;74.50;97468.53;5027656;28;20049;-74
2022/01/17 03:40:42;;;;;;;16.85;9.52;;;;;;;2.10;74.88;97469.94;5024702;28;20052;-75
2022/01/17 03:43:09;;;;;;;17.38;9.10;;;;;;;2.13;74.54;97452.50;5027291;28;20061;-74
2022/01/17 03:45:37;;;;;;;17.58;9.40;;;;;;;2.13;74.37;97441.75;5027625;28;20049;-74
2022/01/17 03:48:04;;;;;;;17.70;8.88;;;;;;;2.16;74.02;97452.84;5027391;28;20060;-74
2022/01/17 03:50:31;;;;;;;17.90;9.02;;;;;;;2.16;73.99;97442.09;5027843;28;20061;-75
2022/01/17 03:52:57;;;;;;;18.27;9.00;;;;;;;2.13;73.92;97437.19;5027372;28;20045;-75
2022/01/17 03:55:27;;;;;;;16.35;9.07;;;;;;;2.11;74.19;97436.63;5027487;28;20084;-75
2022/01/17 03:57:54;;;;;;;18.15;9.23;;;;;;;2.12;73.91;97430.19;5027420;28;20045;-74
2022/01/17 04:00:25;;;;;;;17.08;9.07;;;;;;;2.07;73.94;97435.47;5027135;28;20057;-74
2022/01/17 04:02:54;;;;;;;15.95;9.00;;;;;;;2.08;73.98;97437.09;5027814;28;20041;-75
2022/01/17 04:05:21;;;;;;;16.83;8.93;;;;;;;2.08;73.91;97427.16;5031385;28;20507;-75
2022/01/17 04:07:47;;;;;;;15.07;8.20;;;;;;;2.12;73.95;97424.00;5031689;28;20048;-74
2022/01/17 04:10:15;;;;;;;16.27;8.93;;;;;;;2.13;73.81;97437.19;5030682;28;20631;-74
2022/01/17 04:12:42;;;;;;;18.35;9.13;;;;;;;2.08;73.71;97445.16;5031668;28;20049;-74
2022/01/17 04:15:11;;;;;;;17.13;8.10;;;;;;;2.05;74.17;97451.00;5030818;28;20053;-75
2022/01/17 04:17:39;;;;;;;15.52;8.95;;;;;;;2.08;73.90;97445.16;5031349;28;20515;-75
2022/01/17 04:20:13;;;;;;;16.48;8.43;;;;;;;2.06;73.93;97444.59;5030669;28;20416;-74
2022/01/17 04:22:44;;;;;;;16.05;8.68;;;;;;;2.09;73.79;97446.81;5031719;28;20069;-74
2022/01/17 04:25:12;;;;;;;19.40;8.93;;;;;;;2.09;73.97;97457.56;5030840;28;20063;-75
2022/01/17 04:27:39;;;;;;;16.25;8.32;;;;;;;2.11;73.50;97460.81;5031397;28;20049;-75
2022/01/17 04:30:07;;;;;;;13.95;7.15;;;;;;;2.07;73.45;97455.09;5030599;28;20050;-75
2022/01/17 04:32:34;;;;;;;15.60;8.52;;;;;;;2.04;73.87;97450.19;5031112;28;20052;-74
2022/01/17 04:35:02;;;;;;;17.77;8.60;;;;;;;2.01;73.96;97441.78;5031127;28;20053;-74
2022/01/17 04:37:29;;;;;;;14.82;8.30;;;;;;;1.98;74.09;97445.75;5030996;28;20049;-74
2022/01/17 04:39:56;;;;;;;15.88;8.13;;;;;;;2.01;74.38;97465.97;5030767;28;20052;-74
2022/01/17 04:42:27;;;;;;;14.10;7.97;;;;;;;2.00;74.45;97485.81;5030537;28;20523;-72
2022/01/17 04:45:11;;;;;;;19.02;9.32;;;;;;;1.97;74.59;97476.34;5031260;28;20057;-75
2022/01/17 04:47:38;;;;;;;;;;;;;;;1.93;74.28;97469.84;5031125;28;20103;-75
2022/01/17 04:50:06;;;;;;;15.68;7.72;;;;;;;1.92;74.68;97488.84;5030495;28;19929;-74
2022/01/17 04:52:36;;;;;;;16.08;8.43;;;;;;;1.91;74.63;97493.41;5030650;28;20049;-74
2022/01/17 04:55:02;;;;;;;16.70;7.95;;;;;;;1.94;74.86;97489.47;5030425;28;20049;-74
2022/01/17 04:57:29;;;;;;;15.68;8.25;;;;;;;1.94;74.95;97476.03;5030524;28;20583;-74
2022/01/17 04:59:56;;;;;;;16.35;8.35;;;;;;;1.93;74.88;97472.53;5030491;28;20049;-74
2022/01/17 05:02:23;;;;;;;14.90;7.65;;;;;;;1.98;74.96;97466.44;5030343;28;20427;-74
2022/01/17 05:04:50;;;;;;;17.42;8.50;;;;;;;1.97;75.01;97456.75;5030598;28;20061;-74
2022/01/17 05:07:17;;;;;;;14.55;8.48;;;;;;;1.95;74.89;97456.16;5030096;28;20041;-73
2022/01/17 05:09:46;;;;;;;15.10;8.07;;;;;;;1.97;75.07;97462.13;5030446;28;20046;-73
2022/01/17 05:12:13;;;;;;;16.73;7.70;;;;;;;1.98;75.08;97471.81;5027477;28;20152;-72
2022/01/17 05:14:42;;;;;;;13.00;7.57;;;;;;;1.99;75.02;97468.09;5029550;28;20049;-73
2022/01/17 05:17:23;;;;;;;17.83;8.75;;;;;;;1.98;75.19;97471.81;5029867;28;20496;-73
2022/01/17 05:19:53;;;;;;;16.20;8.57;;;;;;;1.95;75.44;97466.91;5030392;28;20053;-72
2022/01/17 05:22:20;;;;;;;14.50;8.68;;;;;;;1.96;75.40;97465.84;5029859;28;20104;-75
2022/01/17 05:24:49;;;;;;;13.75;7.20;;;;;;;1.97;75.52;97465.59;5030212;28;20049;-75
2022/01/17 05:27:16;;;;;;;13.77;7.82;;;;;;;1.95;75.69;97456.16;5029517;28;20073;-75
2022/01/17 05:29:42;;;;;;;15.05;8.15;;;;;;;1.96;75.75;97442.50;5029847;28;20068;-74
2022/01/17 05:32:09;;;;;;;17.02;8.68;;;;;;;1.97;75.79;97437.94;5029288;28;20511;-74
2022/01/17 05:34:40;;;;;;;14.48;7.60;;;;;;;1.95;76.12;97445.44;5030171;28;20045;-74
2022/01/17 05:37:07;;;;;;;15.82;8.45;;;;;;;1.93;76.04;97451.03;5029432;28;20131;-74
2022/01/17 05:39:33;;;;;;;16.42;8.48;;;;;;;1.92;75.99;97459.31;5029723;28;20049;-75
2022/01/17 05:42:01;;;;;;;13.30;7.20;;;;;;;1.95;76.34;97474.97;5029562;28;20088;-74
2022/01/17 05:44:28;;;;;;;14.38;7.72;;;;;;;1.93;76.31;97479.75;5029699;28;20508;-74
2022/01/17 05:46:54;;;;;;;16.25;8.15;;;;;;;1.97;76.57;97487.09;5029822;28;20045;-75
2022/01/17 05:49:21;;;;;;;15.02;7.25;;;;;;;1.97;76.13;97497.03;5029417;28;20450;-74
2022/01/17 05:51:47;;;;;;;15.00;8.25;;;;;;;1.97;76.36;97499.72;5028990;28;20500;-75
2022/01/17 05:54:13;;;;;;;14.75;8.68;;;;;;;1.94;77.11;97502.91;5029414;28;20639;-72
2022/01/17 05:56:40;;;;;;;18.13;8.85;;;;;;;1.89;78.16;97516.22;5029756;28;20056;-73
2022/01/17 05:59:08;;;;;;;17.70;8.57;;;;;;;1.86;78.69;97516.66;5029290;28;20041;-72
2022/01/17 06:01:39;;;;;;;15.57;8.68;;;;;;;1.79;79.11;97522.97;5029423;28;20052;-72
2022/01/17 06:04:05;;;;;;;14.45;8.68;;;;;;;1.76;79.36;97515.38;5029236;28;20049;-73
2022/01/17 06:06:32;;;;;;;17.85;8.55;;;;;;;1.77;78.86;97510.81;5029502;28;20076;-73
2022/01/17 06:08:58;;;;;;;20.17;8.50;;;;;;;1.78;78.67;97499.84;5029351;28;20053;-73
2022/01/17 06:11:25;;;;;;;21.25;9.25;;;;;;;1.78;78.23;97483.75;5026462;28;20053;-73
2022/01/17 06:13:51;;;;;;;16.23;8.70;;;;;;;1.80;78.10;97484.31;5029283;28;20045;-73
2022/01/17 06:16:19;;;;;;;14.70;7.80;;;;;;;1.83;78.14;97475.81;5028025;28;20060;-73
2022/01/17 06:18:45;;;;;;;16.23;8.05;;;;;;;1.83;78.14;97467.75;5029219;28;20042;-74
2022/01/17 06:21:12;;;;;;;13.95;7.03;;;;;;;1.83;77.93;97457.00;5028233;28;20049;-67
2022/01/17 06:23:38;;;;;;;17.42;8.82;;;;;;;1.85;77.83;97459.44;5028888;28;20044;-67
2022/01/17 06:26:05;;;;;;;17.38;8.63;;;;;;;1.83;78.01;97465.06;5028044;28;20103;-67
2022/01/17 06:28:31;;;;;;;13.40;8.15;;;;;;;1.86;77.87;97474.50;5028785;28;20045;-67
2022/01/17 06:30:58;;;;;;;14.63;7.68;;;;;;;1.89;78.07;97463.31;5028520;28;20049;-67
2022/01/17 06:33:26;;;;;;;16.70;8.52;;;;;;;1.91;77.87;97466.56;5028039;28;20063;-67
2022/01/17 06:35:52;;;;;;;15.65;8.38;;;;;;;1.92;77.76;97453.94;5028628;28;20054;-67
2022/01/17 06:38:19;;;;;;;17.02;8.35;;;;;;;1.90;77.63;97448.00;5028063;28;20053;-67
2022/01/17 06:40:45;;;;;;;13.38;7.63;;;;;;;1.93;78.02;97447.50;5028397;28;20052;-67
2022/01/17 06:43:12;;;;;;;14.23;8.52;;;;;;;1.94;77.94;97446.47;5028112;28;20053;-67
2022/01/17 06:45:39;;;;;;;15.30;7.85;;;;;;;1.93;78.02;97459.09;5028257;28;20568;-67
2022/01/17 06:48:06;;;;;;;15.32;8.57;;;;;;;1.96;78.13;97463.16;5027941;28;20073;-69
2022/01/17 06:50:34;;;;;;;15.43;8.55;;;;;;;1.99;77.86;97462.72;5027037;28;20444;-69
2022/01/17 06:53:01;;;;;;;17.23;8.18;;;;;;;2.02;78.13;97489.09;5027505;28;20060;-68
2022/01/17 06:55:28;;;;;;;17.08;8.13;;;;;;;2.05;77.85;97488.63;5028133;28;20511;-67
2022/01/17 06:57:54;;;;;;;14.95;7.30;;;;;;;2.04;77.97;97503.13;5028456;28;20060;-68
2022/01/17 07:00:21;;;;;;;15.35;7.93;;;;;;;2.11;77.97;97525.31;5027832;28;20053;-68
2022/01/17 07:02:48;;;;;;;16.08;8.13;;;;;;;2.13;78.05;97517.81;5028577;28;20052;-68
2022/01/17 07:05:14;;;;;;;12.43;7.50;;;;;;;2.19;77.90;97505.28;5028231;28;20045;-68
2022/01/17 07:07:42;;;;;;;13.50;7.57;;;;;;;2.22;77.84;97505.66;5028513;28;20053;-68
2022/01/17 07:10:09;;;;;;;13.68;7.63;;;;;;;2.27;77.90;97513.00;5025391;28;20637;-68
2022/01/17 07:12:36;;;;;;;14.20;7.68;;;;;;;2.25;78.04;97513.25;5028139;28;20045;-68
2022/01/17 07:15:03;;;;;;;12.20;7.28;;;;;;;2.25;77.83;97510.56;5027747;28;20081;-68
2022/01/17 07:17:30;;;;;;;14.15;7.50;;;;;;;2.30;78.03;97548.31;5028062;28;20053;-68
2022/01/17 07:19:57;;;;;;;14.48;7.90;;;;;;;2.35;77.99;97569.91;5027899;28;20512;-70
2022/01/17 07:22:23;;;;;;;13.45;7.28;;;;;;;2.39;77.85;97569.44;5027737;28;20049;-70
2022/01/17 07:24:51;;;;;;;16.17;7.93;;;;;;;2.40;77.70;97600.63;5028048;28;20061;-68
2022/01/17 07:27:18;;;;;;;13.02;7.38;;;;;;;2.40;77.29;97630.19;5027244;28;20049;-68
2022/01/17 07:29:44;;;;;;;14.45;7.78;;;;;;;2.45;77.58;97627.63;5027900;28;20496;-67
2022/01/17 07:32:11;;;;;;;14.27;7.88;;;;;;;2.39;77.74;97612.44;5027533;28;20057;-70
2022/01/17 07:34:37;;;;;;;11.05;6.95;;;;;;;2.40;77.46;97630.19;5027881;28;20042;-70
2022/01/17 07:37:04;;;;;;;14.20;7.90;;;;;;;2.37;77.27;97625.31;5027382;28;20053;-68
2022/01/17 07:39:31;;;;;;;13.93;7.63;;;;;;;2.39;77.38;97607.06;5027098;28;20133;-70
2022/01/17 07:41:59;;;;;;;15.60;8.15;;;;;;;2.40;77.28;97581.81;5027417;28;20053;-70
2022/01/17 07:44:27;;;;;;;15.50;7.93;;;;;;;2.41;77.39;97564.66;5027420;28;20050;-70
2022/01/17 07:46:55;;;;;;;15.70;7.47;;;;;;;2.37;77.28;97587.69;5027320;28;20051;-70
2022/01/17 07:49:23;;;;;;;14.82;7.25;;;;;;;2.43;77.18;97582.16;5027344;28;20056;-70
2022/01/17 07:51:56;;;;;;;16.58;8.77;;;;;;;2.44;76.94;97589.16;5027622;28;20060;-69
2022/01/17 07:54:24;;;;;;;13.90;7.35;;;;;;;2.43;76.35;97575.97;5027273;28;20111;-70
2022/01/17 07:56:51;;;;;;;13.85;7.35;;;;;;;2.46;76.73;97581.72;5027470;28;20088;-70
2022/01/17 07:59:19;;;;;;;14.50;7.65;;;;;;;2.45;76.82;97592.69;5027201;28;20424;-70
2022/01/17 08:01:46;;;;;;;16.02;7.47;;;;;;;2.51;76.61;97583.69;5027656;28;20042;-70
2022/01/17 08:04:12;;;;;;;12.98;7.63;;;;;;;2.52;76.78;97579.94;5027328;28;20049;-70
2022/01/17 08:06:40;;;;;;;12.60;7.30;;;;;;;2.55;76.71;97574.06;5027954;28;20049;-70
2022/01/17 08:09:09;;;;;;;13.63;7.45;;;;;;;2.55;76.66;97568.69;5027144;28;20140;-70
2022/01/17 08:11:35;;;;;;;12.85;6.97;;;;;;;2.54;76.58;97567.88;5027337;28;20045;-70
2022/01/17 08:14:02;;;;;;;15.38;7.82;;;;;;;2.51;76.88;97568.38;5027079;28;20061;-71
2022/01/17 08:16:30;;;;;;;13.48;7.60;;;;;;;2.53;76.91;97577.00;5027772;28;20076;-70
2022/01/17 08:18:56;;;;;;;17.25;8.23;;;;;;;2.56;76.85;97571.19;5027526;28;20054;-70
2022/01/17 08:21:23;;;;;;;14.98;8.05;;;;;;;2.56;77.02;97568.47;5026636;28;20053;-70
2022/01/17 08:23:50;;;;;;;13.50;7.68;;;;;;;2.57;77.23;97575.50;5027493;28;20037;-70
2022/01/17 08:26:19;;;;;;;15.30;8.43;;;;;;;2.58;77.33;97585.19;5026611;28;20053;-70
2022/01/17 08:28:45;;;;;;;14.95;7.82;;;;;;;2.65;77.57;97570.78;5027310;28;20071;-70
2022/01/17 08:31:12;;;;;;;14.05;7.63;;;;;;;2.61;77.49;97568.59;5026485;28;20068;-70
2022/01/17 08:33:40;;;;;;;13.63;8.02;;;;;;;2.61;77.70;97557.03;5027359;28;20045;-70
2022/01/17 08:36:07;;;;;;;14.13;7.05;;;;;;;2.59;77.77;97551.84;5026662;28;20049;-70
2022/01/17 08:38:34;;;;;;;13.45;7.03;;;;;;;2.64;78.15;97537.69;5027033;28;20429;-69
2022/01/17 08:41:00;;;;;;;15.70;7.97;;;;;;;2.65;78.22;97525.06;5026771;28;20041;-70
2022/01/17 08:43:27;;;;;;;12.23;7.38;;;;;;;2.61;78.31;97532.81;5026634;28;20069;-70
2022/01/17 08:45:54;;;;;;;14.98;8.13;;;;;;;2.60;78.75;97517.72;5027284;28;20051;-70
2022/01/17 08:48:21;;;;;;;13.30;7.22;;;;;;;2.62;78.86;97526.38;5026518;28;20050;-70
2022/01/17 08:50:50;;;;;;;17.52;9.95;;;;;;;2.65;79.29;97536.63;5028797;28;20045;-70
2022/01/17 08:53:18;;;;;;;13.90;6.68;;;;;;;2.64;79.44;97545.78;5030222;28;20053;-70
2022/01/17 08:55:46;;;;;;;12.77;7.70;;;;;;;2.59;79.59;97551.03;5030874;28;20045;-70
2022/01/17 08:58:13;;;;;;;11.27;7.20;;;;;;;2.65;79.72;97558.16;5030246;28;20425;-69
2022/01/17 09:00:41;;;;;;;13.98;7.50;;;;;;;2.59;80.22;97556.41;5030801;28;20057;-69
2022/01/17 09:03:08;;;;;;;14.77;8.00;;;;;;;2.62;80.16;97564.03;5030252;28;20057;-70
2022/01/17 09:05:35;;;;;;;14.52;8.43;;;;;;;2.66;80.26;97581.28;5030602;28;20049;-70
2022/01/17 09:08:05;;;;;;;14.27;7.43;;;;;;;2.70;80.08;97581.66;5030265;28;20054;-71
2022/01/17 09:10:32;;;;;;;14.25;7.57;;;;;;;2.71;80.23;97570.66;5028303;28;20045;-70
2022/01/17 09:12:59;;;;;;;13.50;6.43;;;;;;;2.75;80.10;97563.75;5030484;28;20057;-70
2022/01/17 09:15:26;;;;;;;13.13;7.25;;;;;;;2.74;79.63;97580.13;5030247;28;20423;-70
2022/01/17 09:17:52;;;;;;;12.65;7.28;;;;;;;2.90;79.96;97597.41;5030644;28;20049;-70
2022/01/17 09:20:19;;;;;;;11.27;6.70;;;;;;;3.01;79.04;97610.00;5029749;28;20061;-70
2022/01/17 09:22:46;;;;;;;11.77;6.75;;;;;;;3.03;79.04;97608.72;5030403;28;20060;-70
2022/01/17 09:25:14;;;;;;;12.57;7.00;;;;;;;3.10;79.32;97630.09;5029794;28;20053;-70
2022/01/17 09:27:42;;;;;;;16.55;8.00;;;;;;;3.12;78.73;97622.59;5030269;28;20056;-70
2022/01/17 09:30:11;;;;;;;14.88;7.13;;;;;;;3.17;78.84;97609.22;5029698;28;20057;-70
2022/01/17 09:32:38;;;;;;;14.85;7.40;;;;;;;3.19;78.04;97639.44;5030126;28;20049;-70
2022/01/17 09:35:05;;;;;;;18.35;8.20;;;;;;;3.23;78.66;97640.56;5029593;28;20057;-70
2022/01/17 09:37:32;;;;;;;14.13;6.97;;;;;;;3.30;78.37;97625.13;5030018;28;20056;-68
2022/01/17 09:39:59;;;;;;;13.98;7.75;;;;;;;3.33;77.79;97630.00;5029441;28;20136;-68
2022/01/17 09:42:27;;;;;;;14.27;7.55;;;;;;;3.40;77.91;97638.78;5029565;28;20602;-68
2022/01/17 09:44:53;;;;;;;12.85;8.02;;;;;;;3.39;77.88;97631.75;5029950;28;20045;-68
2022/01/17 09:47:20;;;;;;;14.13;7.60;;;;;;;3.48;78.08;97636.75;5029358;28;20394;-68
2022/01/17 09:49:54;;;;;;;13.35;7.35;;;;;;;3.44;77.27;97647.16;5029788;28;20045;-68
2022/01/17 09:52:36;;;;;;;13.05;7.10;;;;;;;3.39;77.85;97637.16;5029404;28;20045;-71
2022/01/17 09:55:08;;;;;;;14.60;8.43;;;;;;;3.43;77.67;97644.72;5029160;28;20058;-68
2022/01/17 09:57:40;;;;;;;15.18;7.72;;;;;;;3.39;77.67;97625.53;5029592;28;20049;-69
2022/01/17 10:00:08;;;;;;;13.40;7.50;;;;;;;3.44;77.61;97614.03;5029024;28;20050;-68
2022/01/17 10:02:34;;;;;;;13.15;7.38;;;;;;;3.41;77.75;97615.34;5029214;28;20632;-68
2022/01/17 10:05:05;;;;;;;11.23;7.03;;;;;;;3.40;77.17;97630.69;5012173;28;20501;-69
2022/01/17 10:07:54;;;;;;;15.13;8.40;;;;;;;3.43;77.90;97623.19;5009884;28;20046;-68
2022/01/17 10:10:38;;;;;;;13.40;7.53;;;;;;;3.41;77.94;97612.66;5012657;28;20054;-70
2022/01/17 10:13:08;;;;;;;12.35;7.22;;;;;;;3.43;77.43;97612.41;5028867;28;20049;-69
2022/01/17 10:15:45;;;;;;;13.77;8.00;;;;;;;3.45;77.48;97594.16;5029336;28;20049;-69
2022/01/17 10:18:25;;;;;;;12.93;7.45;;;;;;;3.52;77.42;97597.50;5029001;28;20055;-70
2022/01/17 10:20:56;;;;;;;16.00;7.90;;;;;;;3.58;77.15;97588.44;5028680;28;20500;-70
2022/01/17 10:23:40;;;;;;;12.95;7.72;;;;;;;3.64;76.83;97576.69;5028812;28;20504;-70
2022/01/17 10:26:15;;;;;;;15.10;7.80;;;;;;;3.63;76.90;97564.28;5028847;28;20057;-71
2022/01/17 10:29:07;;;;;;;12.73;7.60;;;;;;;3.55;76.59;97564.69;5029026;28;20059;-69
2022/01/17 10:37:07;;;;;;;12.90;7.45;;;;;;;3.75;77.00;97566.91;5028596;28;20060;-70
2022/01/17 10:39:37;;;;;;;11.93;7.10;;;;;;;3.85;76.43;97573.28;5028720;28;20052;-68
2022/01/17 10:42:23;;;;;;;10.85;6.43;;;;;;;3.85;76.12;97575.97;5025863;28;20087;-70
2022/01/17 10:44:51;;;;;;;11.27;6.07;;;;;;;3.86;75.83;97582.16;5029002;28;20095;-70
2022/01/17 10:47:23;;;;;;;10.40;6.82;;;;;;;3.84;75.44;97592.38;5028171;28;20052;-70
2022/01/17 10:49:51;;;;;;;10.68;6.50;;;;;;;3.91;75.97;97585.78;5028572;28;20041;-70
2022/01/17 10:52:33;;;;;;;14.18;7.03;;;;;;;3.97;75.21;97580.47;5028085;28;20048;-70
2022/01/17 10:55:04;;;;;;;10.90;5.80;;;;;;;4.02;75.03;97577.84;5028642;28;20548;-70
2022/01/17 10:57:34;;;;;;;9.73;5.70;;;;;;;4.00;75.22;97586.19;5028375;28;20057;-70
2022/01/17 11:00:06;;;;;;;10.43;6.53;;;;;;;4.06;75.78;97579.81;5028586;28;20053;-68
2022/01/17 11:02:32;;;;;;;11.32;6.15;;;;;;;4.15;75.06;97572.94;5028850;28;20073;-70
2022/01/17 11:05:03;;;;;;;10.77;5.82;;;;;;;4.17;74.69;97573.50;5028497;28;20054;-69
2022/01/17 11:07:30;;;;;;;8.00;5.30;;;;;;;4.12;74.47;97568.06;5028350;28;20052;-70
2022/01/17 11:10:00;;;;;;;11.77;6.18;;;;;;;4.11;74.49;97563.72;5028010;28;20512;-70
2022/01/17 11:12:29;;;;;;;8.73;5.50;;;;;;;4.20;74.16;97577.59;5027532;28;20057;-70
2022/01/17 11:14:57;;;;;;;10.63;5.93;;;;;;;4.27;74.48;97574.72;5027950;28;20044;-70
2022/01/17 11:17:34;;;;;;;11.23;5.78;;;;;;;4.31;73.58;97565.88;5027927;28;20072;-68
2022/01/17 11:20:06;;;;;;;9.38;5.22;;;;;;;4.37;74.55;97572.97;5028229;28;20053;-68
2022/01/17 11:22:35;;;;;;;10.05;5.38;;;;;;;4.43;73.20;97566.59;5028177;28;20052;-69
2022/01/17 11:25:02;;;;;;;9.93;5.60;;;;;;;4.51;73.44;97565.38;5027566;28;20046;-68
2022/01/17 11:27:29;;;;;;;9.23;5.57;;;;;;;4.50;73.54;97573.72;5028167;28;20053;-68
2022/01/17 11:29:57;;;;;;;11.23;5.20;;;;;;;4.45;73.29;97558.28;5028054;28;20053;-68
2022/01/17 11:32:25;;;;;;;8.88;5.18;;;;;;;4.51;72.71;97559.16;5027590;28;20049;-68
2022/01/17 11:34:52;;;;;;;7.63;4.50;;;;;;;4.53;72.33;97557.00;5028113;28;20053;-68
2022/01/17 11:37:20;;;;;;;8.45;5.00;;;;;;;4.70;72.93;97557.78;5027496;28;20050;-68
2022/01/17 11:39:49;;;;;;;8.57;5.15;;;;;;;4.84;72.39;97559.03;5027831;28;20103;-68
2022/01/17 11:42:37;;;;;;;9.93;5.30;;;;;;;4.89;72.85;97577.97;5025144;28;20508;-69
2022/01/17 11:45:33;;;;;;;10.45;4.97;;;;;;;4.91;72.82;97565.06;5027326;28;20049;-68
2022/01/17 11:48:02;;;;;;;6.93;4.35;;;;;;;4.99;71.50;97544.91;5027923;28;20050;-70
2022/01/17 11:50:42;;;;;;;7.65;4.80;;;;;;;4.95;72.98;97539.19;5027332;28;20041;-70